XSA weather

Tappahannock-Essex County Airport
Tappahannock, Virginia, United States

Public forecast

Using degrees Fahrenheit for public forecast. Weather courtesy of forecast.io.

METAR (pilot weather report)

Retrieved 2019/06/17 20:35 UTC (0 seconds ago):

KXSA 172035Z AUTO 16011G15KT 10SM SCT042 SCT049 SCT070 31/25 A2996 RMK AO2 LTG DSNT N NE AND S T03080247

TAF (pilot weather forecast)

Closest forecast is Richmond International Airport, 29.4 nm (54.4 km) SW. Retrieved 2019/06/17 18:42 UTC (2 hours ago):

TAF KRIC 171741Z 1718/1818 18009KT P6SM SCT035 BKN090 FM172200 22007KT P6SM VCSH BKN040 FM180100 20005KT P6SM BKN250 FM181400 23007KT P6SM SCT100